createdAt,value
2022-07-29T00:02:27.475Z,4.00
2022-07-29T00:07:48.531Z,4.05
2022-07-29T00:13:09.273Z,4.13
2022-07-29T00:18:30.049Z,3.67
2022-07-29T00:23:51.547Z,4.13
2022-07-29T00:35:12.043Z,5.25
2022-07-29T00:40:33.127Z,4.68
2022-07-29T00:45:54.039Z,4.32
2022-07-29T00:51:15.281Z,4.10
2022-07-29T00:56:36.379Z,4.07
2022-07-29T01:01:57.243Z,4.47
2022-07-29T01:07:18.896Z,5.13
2022-07-29T01:12:40.229Z,4.00
2022-07-29T01:18:05.015Z,5.13
2022-07-29T01:23:26.956Z,5.20
2022-07-29T01:29:07.714Z,4.13
2022-07-29T01:34:39.379Z,5.25
2022-07-29T01:40:02.041Z,4.75
2022-07-29T01:45:33.320Z,4.55
2022-07-29T01:51:02.288Z,5.13
2022-07-29T01:56:24.258Z,4.23
2022-07-29T02:01:46.833Z,5.43
2022-07-29T02:07:09.404Z,4.65
2022-07-29T02:12:31.905Z,4.82
2022-07-29T02:18:16.101Z,5.03
2022-07-29T02:23:45.260Z,4.35
2022-07-29T02:29:13.634Z,5.13
2022-07-29T02:34:35.392Z,5.28
2022-07-29T02:39:56.583Z,4.47
2022-07-29T02:45:18.101Z,4.53
2022-07-29T02:50:42.439Z,4.30
2022-07-29T02:56:07.713Z,4.18
2022-07-29T03:01:31.417Z,5.05
2022-07-29T03:06:53.663Z,4.53
2022-07-29T03:12:15.241Z,4.65
2022-07-29T03:17:36.713Z,4.75
2022-07-29T03:22:57.875Z,4.07
2022-07-29T03:28:19.199Z,4.97
2022-07-29T03:33:40.566Z,4.95
2022-07-29T03:39:02.088Z,5.30
2022-07-29T03:44:23.742Z,4.72
2022-07-29T03:49:46.104Z,4.75
2022-07-29T03:55:08.047Z,4.93
2022-07-29T04:00:29.870Z,4.70
2022-07-29T04:06:01.138Z,4.65
2022-07-29T04:11:22.189Z,4.90
2022-07-29T04:16:42.948Z,4.07
2022-07-29T04:22:03.934Z,4.35
2022-07-29T04:27:24.647Z,4.50
2022-07-29T04:32:45.515Z,4.55
2022-07-29T04:38:07.242Z,4.65
2022-07-29T04:43:28.290Z,3.85
2022-07-29T04:48:57.825Z,4.22
2022-07-29T04:54:19.235Z,4.05
2022-07-29T04:59:40.527Z,3.90
2022-07-29T05:05:01.294Z,4.80
2022-07-29T05:10:23.670Z,4.95
2022-07-29T05:15:44.676Z,4.05
2022-07-29T05:21:05.637Z,4.75
2022-07-29T05:26:26.573Z,4.70
2022-07-29T05:31:47.328Z,3.67
2022-07-29T05:37:08.378Z,3.97
2022-07-29T05:42:30.292Z,4.05
2022-07-29T05:47:51.227Z,4.57
2022-07-29T05:53:19.505Z,4.25
2022-07-29T05:58:41.776Z,3.95
2022-07-29T06:04:03.157Z,4.50
2022-07-29T06:09:24.094Z,4.13
2022-07-29T06:14:44.966Z,4.00
2022-07-29T06:20:07.571Z,3.83
2022-07-29T06:25:32.072Z,3.67
2022-07-29T06:30:52.906Z,3.45
2022-07-29T06:36:13.784Z,4.05
2022-07-29T06:41:35.488Z,4.13
2022-07-29T06:47:03.905Z,4.07
2022-07-29T06:52:26.561Z,3.20
2022-07-29T06:57:47.550Z,3.20
2022-07-29T07:03:12.910Z,3.38
2022-07-29T07:08:33.984Z,3.45
2022-07-29T07:13:59.284Z,2.88
2022-07-29T07:19:23.528Z,2.75
2022-07-29T07:24:44.524Z,2.15
2022-07-29T07:30:09.813Z,2.17
2022-07-29T07:35:30.892Z,2.58
2022-07-29T07:40:51.867Z,2.47
2022-07-29T07:46:12.847Z,2.30
2022-07-29T07:51:55.562Z,2.40
2022-07-29T07:57:16.987Z,2.28
2022-07-29T08:02:38.651Z,2.17
2022-07-29T08:07:59.808Z,1.95
2022-07-29T08:13:21.519Z,1.80
2022-07-29T08:18:43.294Z,2.55
2022-07-29T08:24:22.845Z,1.90
2022-07-29T08:29:44.167Z,1.98
2022-07-29T08:35:05.139Z,1.33
2022-07-29T08:40:32.307Z,1.85
2022-07-29T08:45:53.586Z,1.58
2022-07-29T08:51:16.141Z,1.30
2022-07-29T08:56:37.885Z,1.13
2022-07-29T09:02:00.908Z,1.10
2022-07-29T09:07:22.443Z,1.00
2022-07-29T09:12:43.572Z,1.27
2022-07-29T09:18:04.410Z,1.30
2022-07-29T09:23:25.426Z,1.23
2022-07-29T09:28:46.322Z,1.40
2022-07-29T09:34:07.736Z,1.00
2022-07-29T09:39:30.504Z,1.23
2022-07-29T09:44:51.814Z,1.30
2022-07-29T09:50:13.119Z,1.00
2022-07-29T09:55:34.427Z,0.95
2022-07-29T10:00:56.166Z,1.00
2022-07-29T10:06:17.304Z,1.33
2022-07-29T10:11:49.122Z,1.05
2022-07-29T10:17:11.426Z,1.13
2022-07-29T10:22:52.371Z,1.00
2022-07-29T10:28:16.484Z,1.17
2022-07-29T10:33:49.216Z,1.40
2022-07-29T10:39:22.227Z,1.13
2022-07-29T10:44:44.708Z,1.35
2022-07-29T10:50:06.507Z,1.27
2022-07-29T10:55:36.315Z,1.27
2022-07-29T11:00:57.843Z,1.10
2022-07-29T11:06:26.848Z,1.10
2022-07-29T11:11:51.551Z,1.30
2022-07-29T11:17:14.090Z,0.98
2022-07-29T11:22:35.914Z,0.95
2022-07-29T11:28:10.108Z,1.00
2022-07-29T11:33:54.731Z,1.17
2022-07-29T11:39:36.635Z,0.90
2022-07-29T11:44:59.644Z,1.45
2022-07-29T11:50:34.905Z,1.10
2022-07-29T11:55:58.174Z,0.93
2022-07-29T12:01:19.807Z,1.25
2022-07-29T12:06:41.048Z,0.93
2022-07-29T12:12:05.411Z,1.27
2022-07-29T12:17:33.718Z,1.23
2022-07-29T12:22:55.644Z,1.13
2022-07-29T12:28:27.501Z,1.30
2022-07-29T12:33:53.658Z,1.20
2022-07-29T12:39:16.732Z,1.55
2022-07-29T12:44:56.378Z,1.17
2022-07-29T12:50:22.125Z,1.23
2022-07-29T12:55:50.026Z,1.98
2022-07-29T13:01:17.432Z,1.50
2022-07-29T13:06:41.231Z,1.80
2022-07-29T13:12:06.995Z,2.22
2022-07-29T13:17:32.958Z,1.05
2022-07-29T13:22:54.302Z,1.45
2022-07-29T13:28:15.202Z,1.40
2022-07-29T13:33:36.254Z,1.33
2022-07-29T13:38:57.262Z,1.35
2022-07-29T13:44:18.446Z,1.10
2022-07-29T13:49:39.396Z,1.20
2022-07-29T13:55:00.521Z,0.90
2022-07-29T14:00:21.868Z,1.65
2022-07-29T14:05:42.755Z,1.05
2022-07-29T14:11:03.749Z,1.73
2022-07-29T14:16:25.008Z,1.65
2022-07-29T14:21:45.891Z,0.93
2022-07-29T14:27:07.972Z,1.20
2022-07-29T14:32:30.293Z,1.35
2022-07-29T14:37:51.145Z,1.30
2022-07-29T14:43:12.074Z,1.52
2022-07-29T14:48:33.267Z,1.38
2022-07-29T14:53:54.513Z,1.70
2022-07-29T14:59:15.500Z,1.00
2022-07-29T15:04:36.583Z,1.33
2022-07-29T15:09:59.679Z,1.10
2022-07-29T15:15:21.044Z,1.83
2022-07-29T15:20:42.412Z,1.13
2022-07-29T15:26:03.848Z,1.10
2022-07-29T15:31:25.168Z,1.65
2022-07-29T15:36:54.004Z,1.42
2022-07-29T15:42:15.522Z,1.70
2022-07-29T15:47:39.003Z,1.10
2022-07-29T15:53:00.495Z,1.33
2022-07-29T15:58:21.547Z,1.42
2022-07-29T16:03:46.112Z,1.83
2022-07-29T16:09:07.488Z,1.42
2022-07-29T16:14:28.638Z,1.58
2022-07-29T16:19:49.995Z,1.73
2022-07-29T16:25:11.167Z,1.40
2022-07-29T16:30:32.279Z,1.40
2022-07-29T16:35:53.455Z,1.50
2022-07-29T16:41:14.448Z,1.27
2022-07-29T16:46:37.872Z,1.45
2022-07-29T16:52:01.991Z,1.55
2022-07-29T16:57:23.190Z,1.33
2022-07-29T17:02:44.627Z,1.75
2022-07-29T17:10:36.835Z,1.58
2022-07-29T17:16:00.461Z,1.77
2022-07-29T17:21:22.928Z,1.88
2022-07-29T17:26:44.718Z,2.10
2022-07-29T17:32:07.465Z,2.08
2022-07-29T17:37:29.310Z,2.00
2022-07-29T17:42:50.357Z,2.00
2022-07-29T17:48:11.171Z,1.90
2022-07-29T17:53:32.158Z,1.60
2022-07-29T17:58:53.146Z,2.35
2022-07-29T18:04:15.688Z,2.33
2022-07-29T18:09:36.790Z,2.28
2022-07-29T18:14:57.881Z,2.05
2022-07-29T18:20:18.807Z,3.40
2022-07-29T18:25:39.824Z,2.17
2022-07-29T18:31:01.372Z,2.63
2022-07-29T18:36:22.618Z,2.63
2022-07-29T18:41:46.142Z,3.50
2022-07-29T18:47:12.011Z,3.45
2022-07-29T18:52:33.190Z,2.78
2022-07-29T18:57:56.694Z,2.33
2022-07-29T19:03:18.075Z,2.88
2022-07-29T19:08:38.979Z,2.80
2022-07-29T19:14:00.018Z,2.35
2022-07-29T19:19:20.883Z,3.22
2022-07-29T19:24:41.885Z,2.55
2022-07-29T19:30:04.767Z,2.33
2022-07-29T19:35:28.329Z,2.10
2022-07-29T19:40:49.617Z,3.00
2022-07-29T19:46:10.533Z,2.00
2022-07-29T19:51:31.522Z,2.45
2022-07-29T19:56:52.409Z,2.72
2022-07-29T20:02:13.818Z,2.13
2022-07-29T20:07:37.026Z,2.60
2022-07-29T20:12:58.677Z,2.45
2022-07-29T20:18:20.066Z,2.58
2022-07-29T20:23:41.032Z,2.05
2022-07-29T20:29:05.309Z,2.15
2022-07-29T20:34:26.614Z,1.92
2022-07-29T20:39:48.109Z,2.28
2022-07-29T20:45:09.814Z,1.67
2022-07-29T20:50:31.002Z,2.35
2022-07-29T20:55:52.377Z,2.28
2022-07-29T21:01:13.621Z,1.70
2022-07-29T21:06:34.903Z,1.60
2022-07-29T21:11:55.865Z,1.45
2022-07-29T21:17:17.144Z,2.42
2022-07-29T21:22:42.559Z,2.13
2022-07-29T21:28:22.194Z,1.98
2022-07-29T21:33:44.597Z,2.00
2022-07-29T21:39:07.350Z,1.98
2022-07-29T21:44:28.427Z,1.50
2022-07-29T21:49:50.374Z,1.23
2022-07-29T21:55:12.162Z,1.95
2022-07-29T22:00:34.426Z,1.70
2022-07-29T22:05:56.356Z,1.73
2022-07-29T22:11:17.240Z,2.28
2022-07-29T22:16:41.565Z,1.55
2022-07-29T22:22:02.573Z,1.08
2022-07-29T22:27:23.549Z,1.50
2022-07-29T22:32:44.882Z,1.98
2022-07-29T22:38:05.895Z,1.58
2022-07-29T22:43:26.864Z,1.52
2022-07-29T22:48:47.970Z,2.45
2022-07-29T22:54:09.044Z,1.40
2022-07-29T22:59:29.931Z,2.17
2022-07-29T23:04:50.792Z,1.17
2022-07-29T23:10:12.987Z,1.40
2022-07-29T23:15:34.608Z,1.27
2022-07-29T23:20:55.640Z,1.52
2022-07-29T23:26:17.194Z,2.00
2022-07-29T23:31:41.828Z,1.67
2022-07-29T23:37:09.086Z,1.67
2022-07-29T23:42:30.168Z,1.55
2022-07-29T23:47:51.228Z,2.20
2022-07-29T23:53:12.388Z,2.35
2022-07-29T23:58:33.522Z,1.90
